createdAt,value
2018-08-28T00:10:32.914Z,11.11
2018-08-28T00:21:34.614Z,11.21
2018-08-28T00:32:35.052Z,11.31
2018-08-28T00:43:36.979Z,11.31
2018-08-28T00:54:37.023Z,11.41
2018-08-28T01:05:38.580Z,11.21
2018-08-28T01:16:40.027Z,11.21
2018-08-28T01:27:41.800Z,11.11
2018-08-28T01:38:43.668Z,11.11
2018-08-28T01:49:45.900Z,11.11
2018-08-28T02:00:47.682Z,11.01
2018-08-28T02:11:47.778Z,10.82
2018-08-28T02:22:49.563Z,10.82
2018-08-28T02:33:50.261Z,10.82
2018-08-28T02:44:52.443Z,10.62
2018-08-28T02:55:51.879Z,10.62
2018-08-28T03:06:53.910Z,10.53
2018-08-28T03:17:54.318Z,10.43
2018-08-28T03:28:55.909Z,10.43
2018-08-28T03:39:57.373Z,10.33
2018-08-28T03:50:59.633Z,10.13
2018-08-28T04:02:01.999Z,10.23
2018-08-28T04:13:03.399Z,10.13
2018-08-28T04:24:04.907Z,10.14
2018-08-28T04:35:06.990Z,10.33
2018-08-28T04:46:07.738Z,10.33
2018-08-28T04:57:09.727Z,10.43
2018-08-28T05:08:11.702Z,10.72
2018-08-28T05:19:14.345Z,10.92
2018-08-28T05:30:15.776Z,11.11
2018-08-28T05:41:17.558Z,11.60
2018-08-28T05:52:20.508Z,12.09
2018-08-28T06:03:22.800Z,12.38
2018-08-28T06:14:26.336Z,12.87
2018-08-28T06:25:28.906Z,13.36
2018-08-28T06:36:29.043Z,13.95
2018-08-28T06:47:30.554Z,15.12
2018-08-28T06:58:34.044Z,15.42
2018-08-28T07:09:36.818Z,16.00
2018-08-28T07:20:36.404Z,16.59
2018-08-28T07:31:39.802Z,16.98
2018-08-28T07:42:43.406Z,17.47
2018-08-28T07:53:35.311Z,17.66
2018-08-28T08:04:35.470Z,18.35
2018-08-28T08:15:38.755Z,18.74
2018-08-28T08:26:42.098Z,19.03
2018-08-28T08:37:44.710Z,19.52
2018-08-28T08:48:47.600Z,20.01
2018-08-28T08:59:50.595Z,20.40
2018-08-28T09:10:52.016Z,20.70
2018-08-28T09:21:54.900Z,21.09
2018-08-28T09:32:56.253Z,21.87
2018-08-28T09:43:54.871Z,22.26
2018-08-28T09:54:56.321Z,22.65
2018-08-28T10:05:58.288Z,22.95
2018-08-28T10:17:00.218Z,23.44
2018-08-28T10:28:01.420Z,23.83
2018-08-28T10:39:04.106Z,24.12
2018-08-28T10:50:05.397Z,24.51
2018-08-28T11:01:08.152Z,24.81
2018-08-28T11:12:11.020Z,24.81
2018-08-28T11:23:12.670Z,25.29
2018-08-28T11:34:13.976Z,25.68
2018-08-28T11:45:17.637Z,28.23
2018-08-28T11:56:20.814Z,27.64
2018-08-28T12:07:22.133Z,26.86
2018-08-28T12:18:24.137Z,26.76
2018-08-28T12:29:25.946Z,26.47
2018-08-28T12:40:27.269Z,26.56
2018-08-28T12:51:28.897Z,26.86
2018-08-28T13:02:30.823Z,26.95
2018-08-28T13:13:32.341Z,27.54
2018-08-28T13:24:17.931Z,28.03
2018-08-28T13:34:57.761Z,28.81
2018-08-28T13:46:01.811Z,29.11
2018-08-28T13:56:45.526Z,30.28
2018-08-28T14:07:27.691Z,30.38
2018-08-28T14:18:12.052Z,30.38
2018-08-28T14:29:13.922Z,29.79
2018-08-28T14:40:00.818Z,29.79
2018-08-28T14:51:06.071Z,29.20
2018-08-28T15:02:01.962Z,28.32
2018-08-28T15:12:58.287Z,26.76
2018-08-28T15:23:57.448Z,26.17
2018-08-28T15:35:03.168Z,26.47
2018-08-28T15:46:02.739Z,25.98
2018-08-28T15:57:02.877Z,25.49
2018-08-28T16:07:59.206Z,24.61
2018-08-28T16:18:59.972Z,24.02
2018-08-28T16:29:58.644Z,23.44
2018-08-28T16:40:58.066Z,22.85
2018-08-28T16:51:59.710Z,22.75
2018-08-28T17:03:01.456Z,22.36
2018-08-28T17:14:01.940Z,21.87
2018-08-28T17:25:02.908Z,20.89
2018-08-28T17:36:04.081Z,20.31
2018-08-28T17:47:04.057Z,19.62
2018-08-28T17:58:05.376Z,19.23
2018-08-28T18:09:03.184Z,18.84
2018-08-28T18:20:03.841Z,18.55
2018-08-28T18:31:00.810Z,18.16
2018-08-28T18:41:59.403Z,17.76
2018-08-28T18:53:01.657Z,17.37
2018-08-28T19:03:59.959Z,17.08
2018-08-28T19:15:00.958Z,16.79
2018-08-28T19:26:01.449Z,16.49
2018-08-28T19:36:53.635Z,16.30
2018-08-28T19:47:54.935Z,16.20
2018-08-28T19:58:56.555Z,16.00
2018-08-28T20:09:56.803Z,15.71
2018-08-28T20:20:58.731Z,15.61
2018-08-28T20:32:00.897Z,15.42
2018-08-28T20:43:03.321Z,15.32
2018-08-28T20:54:05.516Z,15.32
2018-08-28T21:05:07.478Z,15.02
2018-08-28T21:16:06.323Z,14.83
2018-08-28T21:27:06.962Z,14.73
2018-08-28T21:38:09.795Z,14.63
2018-08-28T21:49:11.954Z,14.44
2018-08-28T22:00:12.944Z,14.44
2018-08-28T22:11:09.459Z,14.34
2018-08-28T22:22:10.071Z,14.34
2018-08-28T22:33:10.984Z,14.15
2018-08-28T22:44:13.336Z,14.05
2018-08-28T22:55:16.779Z,14.05
2018-08-28T23:06:18.942Z,14.05
2018-08-28T23:17:20.559Z,13.85
2018-08-28T23:28:20.687Z,13.75
2018-08-28T23:39:22.859Z,13.56
2018-08-28T23:50:24.394Z,13.46
